sensor_id;sensor_type;location;lat;lon;timestamp;P1;durP1;ratioP1;P2;durP2;ratioP2
21890;SDS011;11110;52.386;16.940;2023-03-01T00:01:46;148.30;;;67.80;;
21890;SDS011;11110;52.386;16.940;2023-03-01T00:04:15;178.07;;;71.00;;
21890;SDS011;11110;52.386;16.940;2023-03-01T00:06:45;186.80;;;75.37;;
21890;SDS011;11110;52.386;16.940;2023-03-01T00:09:14;186.87;;;75.33;;
21890;SDS011;11110;52.386;16.940;2023-03-01T00:33:18;186.67;;;71.23;;
21890;SDS011;11110;52.386;16.940;2023-03-01T00:35:47;181.67;;;70.17;;
21890;SDS011;11110;52.386;16.940;2023-03-01T00:38:15;172.77;;;66.87;;
21890;SDS011;11110;52.386;16.940;2023-03-01T00:40:44;167.40;;;64.73;;
21890;SDS011;11110;52.386;16.940;2023-03-01T00:43:13;145.17;;;55.23;;
21890;SDS011;11110;52.386;16.940;2023-03-01T00:45:42;151.57;;;57.07;;
21890;SDS011;11110;52.386;16.940;2023-03-01T00:48:11;145.57;;;56.37;;
21890;SDS011;11110;52.386;16.940;2023-03-01T00:50:41;137.37;;;57.37;;
21890;SDS011;11110;52.386;16.940;2023-03-01T00:53:09;147.47;;;58.57;;
21890;SDS011;11110;52.386;16.940;2023-03-01T00:55:38;147.70;;;58.07;;
21890;SDS011;11110;52.386;16.940;2023-03-01T00:58:07;128.73;;;50.63;;
21890;SDS011;11110;52.386;16.940;2023-03-01T01:00:35;126.27;;;47.50;;
21890;SDS011;11110;52.386;16.940;2023-03-01T01:03:04;139.43;;;54.57;;
21890;SDS011;11110;52.386;16.940;2023-03-01T01:05:34;133.70;;;54.73;;
21890;SDS011;11110;52.386;16.940;2023-03-01T01:08:04;190.37;;;74.53;;
21890;SDS011;11110;52.386;16.940;2023-03-01T01:10:33;187.37;;;73.77;;
21890;SDS011;11110;52.386;16.940;2023-03-01T01:13:03;189.60;;;72.23;;
21890;SDS011;11110;52.386;16.940;2023-03-01T01:15:33;169.73;;;66.00;;
21890;SDS011;11110;52.386;16.940;2023-03-01T01:18:02;189.50;;;73.20;;
21890;SDS011;11110;52.386;16.940;2023-03-01T01:20:31;176.27;;;70.13;;
21890;SDS011;11110;52.386;16.940;2023-03-01T01:23:00;156.60;;;65.57;;
21890;SDS011;11110;52.386;16.940;2023-03-01T01:25:29;165.63;;;64.03;;
21890;SDS011;11110;52.386;16.940;2023-03-01T01:27:59;164.87;;;61.57;;
21890;SDS011;11110;52.386;16.940;2023-03-01T01:30:27;142.87;;;58.07;;
21890;SDS011;11110;52.386;16.940;2023-03-01T01:32:56;170.40;;;67.37;;
21890;SDS011;11110;52.386;16.940;2023-03-01T01:35:25;140.70;;;58.83;;
21890;SDS011;11110;52.386;16.940;2023-03-01T01:37:54;133.57;;;58.97;;
21890;SDS011;11110;52.386;16.940;2023-03-01T01:40:22;145.83;;;60.17;;
21890;SDS011;11110;52.386;16.940;2023-03-01T01:42:52;150.37;;;60.27;;
21890;SDS011;11110;52.386;16.940;2023-03-01T01:45:26;153.83;;;58.23;;
21890;SDS011;11110;52.386;16.940;2023-03-01T01:47:59;152.10;;;56.60;;
21890;SDS011;11110;52.386;16.940;2023-03-01T01:50:30;158.87;;;60.10;;
21890;SDS011;11110;52.386;16.940;2023-03-01T01:53:06;173.70;;;66.93;;
21890;SDS011;11110;52.386;16.940;2023-03-01T01:55:41;168.50;;;62.80;;
21890;SDS011;11110;52.386;16.940;2023-03-01T01:58:15;159.47;;;60.20;;
21890;SDS011;11110;52.386;16.940;2023-03-01T02:00:47;151.27;;;58.00;;
21890;SDS011;11110;52.386;16.940;2023-03-01T02:03:18;140.80;;;53.23;;
21890;SDS011;11110;52.386;16.940;2023-03-01T02:05:51;141.03;;;56.43;;
21890;SDS011;11110;52.386;16.940;2023-03-01T02:08:25;138.10;;;55.83;;
21890;SDS011;11110;52.386;16.940;2023-03-01T02:10:57;145.70;;;55.60;;
21890;SDS011;11110;52.386;16.940;2023-03-01T02:13:28;154.87;;;56.07;;
21890;SDS011;11110;52.386;16.940;2023-03-01T02:15:58;148.13;;;55.17;;
21890;SDS011;11110;52.386;16.940;2023-03-01T02:18:30;147.47;;;57.83;;
21890;SDS011;11110;52.386;16.940;2023-03-01T02:21:02;158.83;;;59.30;;
21890;SDS011;11110;52.386;16.940;2023-03-01T02:23:45;138.30;;;54.33;;
21890;SDS011;11110;52.386;16.940;2023-03-01T02:26:17;136.13;;;53.23;;
21890;SDS011;11110;52.386;16.940;2023-03-01T02:28:52;140.00;;;51.83;;
21890;SDS011;11110;52.386;16.940;2023-03-01T02:31:21;135.23;;;50.93;;
21890;SDS011;11110;52.386;16.940;2023-03-01T02:34:09;125.30;;;48.47;;
21890;SDS011;11110;52.386;16.940;2023-03-01T02:36:42;117.50;;;47.03;;
21890;SDS011;11110;52.386;16.940;2023-03-01T02:39:14;131.90;;;50.40;;
21890;SDS011;11110;52.386;16.940;2023-03-01T02:41:46;135.27;;;52.13;;
21890;SDS011;11110;52.386;16.940;2023-03-01T02:44:19;112.07;;;49.07;;
21890;SDS011;11110;52.386;16.940;2023-03-01T02:46:50;122.37;;;47.90;;
21890;SDS011;11110;52.386;16.940;2023-03-01T02:49:22;123.53;;;47.47;;
21890;SDS011;11110;52.386;16.940;2023-03-01T02:52:01;124.97;;;49.27;;
21890;SDS011;11110;52.386;16.940;2023-03-01T02:54:37;136.37;;;51.27;;
21890;SDS011;11110;52.386;16.940;2023-03-01T02:57:10;133.93;;;50.60;;
21890;SDS011;11110;52.386;16.940;2023-03-01T02:59:41;129.83;;;52.50;;
21890;SDS011;11110;52.386;16.940;2023-03-01T03:02:18;132.63;;;50.20;;
21890;SDS011;11110;52.386;16.940;2023-03-01T03:05:08;116.70;;;48.20;;
21890;SDS011;11110;52.386;16.940;2023-03-01T03:07:39;135.30;;;49.77;;
21890;SDS011;11110;52.386;16.940;2023-03-01T03:10:10;126.00;;;50.53;;
21890;SDS011;11110;52.386;16.940;2023-03-01T03:12:41;121.40;;;47.03;;
21890;SDS011;11110;52.386;16.940;2023-03-01T03:15:12;121.80;;;45.90;;
21890;SDS011;11110;52.386;16.940;2023-03-01T03:17:41;116.27;;;44.23;;
21890;SDS011;11110;52.386;16.940;2023-03-01T03:20:13;112.77;;;43.00;;
21890;SDS011;11110;52.386;16.940;2023-03-01T03:22:46;109.03;;;40.73;;
21890;SDS011;11110;52.386;16.940;2023-03-01T03:25:16;99.93;;;40.37;;
21890;SDS011;11110;52.386;16.940;2023-03-01T03:27:46;93.77;;;37.47;;
21890;SDS011;11110;52.386;16.940;2023-03-01T03:30:18;97.13;;;38.43;;
21890;SDS011;11110;52.386;16.940;2023-03-01T03:32:48;119.73;;;44.57;;
21890;SDS011;11110;52.386;16.940;2023-03-01T03:35:20;114.30;;;45.33;;
21890;SDS011;11110;52.386;16.940;2023-03-01T03:37:53;120.70;;;49.40;;
21890;SDS011;11110;52.386;16.940;2023-03-01T03:40:33;133.80;;;51.23;;
21890;SDS011;11110;52.386;16.940;2023-03-01T03:43:02;122.50;;;48.73;;
21890;SDS011;11110;52.386;16.940;2023-03-01T03:45:33;129.00;;;51.20;;
21890;SDS011;11110;52.386;16.940;2023-03-01T03:48:03;137.30;;;51.40;;
21890;SDS011;11110;52.386;16.940;2023-03-01T03:50:33;125.90;;;50.43;;
21890;SDS011;11110;52.386;16.940;2023-03-01T03:53:03;127.10;;;51.30;;
21890;SDS011;11110;52.386;16.940;2023-03-01T03:55:33;130.43;;;48.87;;
21890;SDS011;11110;52.386;16.940;2023-03-01T03:58:06;134.30;;;51.43;;
21890;SDS011;11110;52.386;16.940;2023-03-01T04:00:39;113.23;;;46.63;;
21890;SDS011;11110;52.386;16.940;2023-03-01T04:03:09;125.40;;;48.27;;
21890;SDS011;11110;52.386;16.940;2023-03-01T04:05:40;115.90;;;45.90;;
21890;SDS011;11110;52.386;16.940;2023-03-01T04:08:09;120.77;;;47.63;;
21890;SDS011;11110;52.386;16.940;2023-03-01T04:10:39;135.13;;;49.23;;
21890;SDS011;11110;52.386;16.940;2023-03-01T04:13:09;134.70;;;53.03;;
21890;SDS011;11110;52.386;16.940;2023-03-01T04:15:42;128.83;;;49.03;;
21890;SDS011;11110;52.386;16.940;2023-03-01T04:18:11;115.80;;;48.40;;
21890;SDS011;11110;52.386;16.940;2023-03-01T04:20:41;120.47;;;47.47;;
21890;SDS011;11110;52.386;16.940;2023-03-01T04:23:12;117.70;;;47.17;;
21890;SDS011;11110;52.386;16.940;2023-03-01T04:25:45;114.67;;;44.03;;
21890;SDS011;11110;52.386;16.940;2023-03-01T04:28:21;107.23;;;43.60;;
21890;SDS011;11110;52.386;16.940;2023-03-01T04:30:53;116.53;;;45.20;;
21890;SDS011;11110;52.386;16.940;2023-03-01T04:33:22;118.20;;;48.70;;
21890;SDS011;11110;52.386;16.940;2023-03-01T04:35:52;123.30;;;48.27;;
21890;SDS011;11110;52.386;16.940;2023-03-01T04:38:21;136.50;;;50.07;;
21890;SDS011;11110;52.386;16.940;2023-03-01T04:40:49;124.90;;;49.47;;
21890;SDS011;11110;52.386;16.940;2023-03-01T04:43:18;125.63;;;48.97;;
21890;SDS011;11110;52.386;16.940;2023-03-01T04:45:47;117.07;;;49.40;;
21890;SDS011;11110;52.386;16.940;2023-03-01T04:48:17;127.53;;;49.57;;
21890;SDS011;11110;52.386;16.940;2023-03-01T04:50:45;128.03;;;49.07;;
21890;SDS011;11110;52.386;16.940;2023-03-01T04:53:15;125.70;;;47.67;;
21890;SDS011;11110;52.386;16.940;2023-03-01T04:55:45;115.00;;;47.70;;
21890;SDS011;11110;52.386;16.940;2023-03-01T04:58:14;126.60;;;48.63;;
21890;SDS011;11110;52.386;16.940;2023-03-01T05:00:43;116.67;;;46.63;;
21890;SDS011;11110;52.386;16.940;2023-03-01T05:03:12;118.40;;;47.27;;
21890;SDS011;11110;52.386;16.940;2023-03-01T05:05:48;114.03;;;47.77;;
21890;SDS011;11110;52.386;16.940;2023-03-01T05:08:18;122.47;;;48.70;;
21890;SDS011;11110;52.386;16.940;2023-03-01T05:10:48;117.73;;;49.53;;
21890;SDS011;11110;52.386;16.940;2023-03-01T05:13:18;131.93;;;48.83;;
21890;SDS011;11110;52.386;16.940;2023-03-01T05:15:49;113.30;;;46.57;;
21890;SDS011;11110;52.386;16.940;2023-03-01T05:18:22;123.37;;;46.93;;
21890;SDS011;11110;52.386;16.940;2023-03-01T05:20:54;108.87;;;45.17;;
21890;SDS011;11110;52.386;16.940;2023-03-01T05:23:25;113.27;;;47.13;;
21890;SDS011;11110;52.386;16.940;2023-03-01T05:25:56;106.23;;;44.13;;
21890;SDS011;11110;52.386;16.940;2023-03-01T05:28:26;117.80;;;46.93;;
21890;SDS011;11110;52.386;16.940;2023-03-01T05:30:57;111.70;;;44.53;;
21890;SDS011;11110;52.386;16.940;2023-03-01T05:33:26;100.40;;;43.67;;
21890;SDS011;11110;52.386;16.940;2023-03-01T05:35:59;109.07;;;44.17;;
21890;SDS011;11110;52.386;16.940;2023-03-01T05:38:28;105.73;;;44.40;;
21890;SDS011;11110;52.386;16.940;2023-03-01T05:40:56;115.50;;;47.10;;
21890;SDS011;11110;52.386;16.940;2023-03-01T05:43:25;117.17;;;47.33;;
21890;SDS011;11110;52.386;16.940;2023-03-01T05:45:54;106.07;;;46.00;;
21890;SDS011;11110;52.386;16.940;2023-03-01T05:48:26;107.37;;;44.13;;
21890;SDS011;11110;52.386;16.940;2023-03-01T05:50:58;108.07;;;44.50;;
21890;SDS011;11110;52.386;16.940;2023-03-01T05:53:27;110.80;;;47.30;;
21890;SDS011;11110;52.386;16.940;2023-03-01T05:55:56;115.87;;;45.60;;
21890;SDS011;11110;52.386;16.940;2023-03-01T05:58:25;101.37;;;43.37;;
21890;SDS011;11110;52.386;16.940;2023-03-01T06:00:53;132.50;;;69.87;;
21890;SDS011;11110;52.386;16.940;2023-03-01T06:03:23;101.47;;;44.23;;
21890;SDS011;11110;52.386;16.940;2023-03-01T06:05:56;104.03;;;41.87;;
21890;SDS011;11110;52.386;16.940;2023-03-01T06:08:25;101.93;;;43.30;;
21890;SDS011;11110;52.386;16.940;2023-03-01T06:10:55;103.63;;;41.50;;
21890;SDS011;11110;52.386;16.940;2023-03-01T06:13:24;98.97;;;41.63;;
21890;SDS011;11110;52.386;16.940;2023-03-01T06:15:53;99.40;;;40.10;;
21890;SDS011;11110;52.386;16.940;2023-03-01T06:18:21;103.80;;;43.33;;
21890;SDS011;11110;52.386;16.940;2023-03-01T06:20:52;98.70;;;42.87;;
21890;SDS011;11110;52.386;16.940;2023-03-01T06:23:23;107.90;;;42.97;;
21890;SDS011;11110;52.386;16.940;2023-03-01T06:25:52;109.53;;;44.63;;
21890;SDS011;11110;52.386;16.940;2023-03-01T06:28:21;104.97;;;43.93;;
21890;SDS011;11110;52.386;16.940;2023-03-01T06:30:50;126.37;;;46.13;;
21890;SDS011;11110;52.386;16.940;2023-03-01T06:33:19;110.43;;;47.57;;
21890;SDS011;11110;52.386;16.940;2023-03-01T06:35:50;118.93;;;46.30;;
21890;SDS011;11110;52.386;16.940;2023-03-01T06:38:18;107.07;;;44.13;;
21890;SDS011;11110;52.386;16.940;2023-03-01T06:40:52;111.90;;;42.40;;
21890;SDS011;11110;52.386;16.940;2023-03-01T06:43:23;102.50;;;42.97;;
21890;SDS011;11110;52.386;16.940;2023-03-01T06:45:52;88.93;;;40.00;;
21890;SDS011;11110;52.386;16.940;2023-03-01T06:48:20;95.40;;;40.87;;
21890;SDS011;11110;52.386;16.940;2023-03-01T06:50:49;102.30;;;40.00;;
21890;SDS011;11110;52.386;16.940;2023-03-01T06:53:18;112.73;;;41.53;;
21890;SDS011;11110;52.386;16.940;2023-03-01T06:55:47;118.20;;;45.90;;
21890;SDS011;11110;52.386;16.940;2023-03-01T06:58:16;110.13;;;44.13;;
21890;SDS011;11110;52.386;16.940;2023-03-01T07:00:45;114.50;;;45.43;;
21890;SDS011;11110;52.386;16.940;2023-03-01T07:03:14;107.67;;;42.40;;
21890;SDS011;11110;52.386;16.940;2023-03-01T07:05:43;96.97;;;40.57;;
21890;SDS011;11110;52.386;16.940;2023-03-01T07:08:12;110.47;;;43.10;;
21890;SDS011;11110;52.386;16.940;2023-03-01T07:10:41;109.90;;;43.70;;
21890;SDS011;11110;52.386;16.940;2023-03-01T07:13:09;106.93;;;43.67;;
21890;SDS011;11110;52.386;16.940;2023-03-01T07:15:39;99.27;;;43.00;;
21890;SDS011;11110;52.386;16.940;2023-03-01T07:18:09;107.30;;;43.97;;
21890;SDS011;11110;52.386;16.940;2023-03-01T07:20:37;97.97;;;42.43;;
21890;SDS011;11110;52.386;16.940;2023-03-01T07:23:06;112.00;;;43.40;;
21890;SDS011;11110;52.386;16.940;2023-03-01T07:25:35;103.70;;;42.00;;
21890;SDS011;11110;52.386;16.940;2023-03-01T07:28:04;104.37;;;43.30;;
21890;SDS011;11110;52.386;16.940;2023-03-01T07:30:33;105.70;;;44.90;;
21890;SDS011;11110;52.386;16.940;2023-03-01T07:33:03;111.73;;;44.50;;
21890;SDS011;11110;52.386;16.940;2023-03-01T07:35:32;105.53;;;41.17;;
21890;SDS011;11110;52.386;16.940;2023-03-01T07:38:01;91.30;;;41.27;;
21890;SDS011;11110;52.386;16.940;2023-03-01T07:40:30;100.47;;;42.73;;
21890;SDS011;11110;52.386;16.940;2023-03-01T07:42:58;105.80;;;42.93;;
21890;SDS011;11110;52.386;16.940;2023-03-01T07:45:28;103.97;;;44.00;;
21890;SDS011;11110;52.386;16.940;2023-03-01T07:47:56;104.30;;;43.77;;
21890;SDS011;11110;52.386;16.940;2023-03-01T07:50:27;97.70;;;41.80;;
21890;SDS011;11110;52.386;16.940;2023-03-01T07:52:55;106.27;;;43.40;;
21890;SDS011;11110;52.386;16.940;2023-03-01T07:55:24;110.43;;;42.20;;
21890;SDS011;11110;52.386;16.940;2023-03-01T07:57:52;93.37;;;40.20;;
21890;SDS011;11110;52.386;16.940;2023-03-01T08:00:21;108.33;;;43.07;;
21890;SDS011;11110;52.386;16.940;2023-03-01T08:02:50;102.17;;;41.37;;
21890;SDS011;11110;52.386;16.940;2023-03-01T08:05:20;98.70;;;41.50;;
21890;SDS011;11110;52.386;16.940;2023-03-01T08:07:50;97.50;;;40.27;;
21890;SDS011;11110;52.386;16.940;2023-03-01T08:10:18;100.73;;;40.73;;
21890;SDS011;11110;52.386;16.940;2023-03-01T08:12:47;92.53;;;36.33;;
21890;SDS011;11110;52.386;16.940;2023-03-01T08:15:18;84.90;;;36.17;;
21890;SDS011;11110;52.386;16.940;2023-03-01T08:17:48;104.27;;;39.17;;
21890;SDS011;11110;52.386;16.940;2023-03-01T08:20:17;82.47;;;33.37;;
21890;SDS011;11110;52.386;16.940;2023-03-01T08:22:46;72.43;;;31.93;;
21890;SDS011;11110;52.386;16.940;2023-03-01T08:25:16;75.67;;;32.43;;
21890;SDS011;11110;52.386;16.940;2023-03-01T08:27:45;81.90;;;33.90;;
21890;SDS011;11110;52.386;16.940;2023-03-01T08:30:14;80.13;;;34.00;;
21890;SDS011;11110;52.386;16.940;2023-03-01T08:32:43;73.40;;;31.90;;
21890;SDS011;11110;52.386;16.940;2023-03-01T08:35:11;81.30;;;34.67;;
21890;SDS011;11110;52.386;16.940;2023-03-01T08:37:40;77.30;;;34.00;;
21890;SDS011;11110;52.386;16.940;2023-03-01T08:40:09;73.43;;;32.37;;
21890;SDS011;11110;52.386;16.940;2023-03-01T08:42:41;78.20;;;34.20;;
21890;SDS011;11110;52.386;16.940;2023-03-01T08:45:11;80.00;;;33.63;;
21890;SDS011;11110;52.386;16.940;2023-03-01T08:47:40;73.47;;;32.67;;
21890;SDS011;11110;52.386;16.940;2023-03-01T08:50:09;79.43;;;31.73;;
21890;SDS011;11110;52.386;16.940;2023-03-01T08:52:38;76.07;;;31.57;;
21890;SDS011;11110;52.386;16.940;2023-03-01T08:55:07;58.63;;;24.67;;
21890;SDS011;11110;52.386;16.940;2023-03-01T08:57:36;47.27;;;16.27;;
21890;SDS011;11110;52.386;16.940;2023-03-01T09:00:08;36.93;;;13.67;;
21890;SDS011;11110;52.386;16.940;2023-03-01T09:02:37;38.33;;;13.40;;
21890;SDS011;11110;52.386;16.940;2023-03-01T09:05:07;39.10;;;16.47;;
21890;SDS011;11110;52.386;16.940;2023-03-01T09:07:36;45.10;;;15.60;;
21890;SDS011;11110;52.386;16.940;2023-03-01T09:10:05;33.40;;;13.57;;
21890;SDS011;11110;52.386;16.940;2023-03-01T09:12:34;33.50;;;13.33;;
21890;SDS011;11110;52.386;16.940;2023-03-01T09:15:03;47.00;;;14.17;;
21890;SDS011;11110;52.386;16.940;2023-03-01T09:17:34;37.37;;;11.63;;
21890;SDS011;11110;52.386;16.940;2023-03-01T09:20:02;44.67;;;14.33;;
21890;SDS011;11110;52.386;16.940;2023-03-01T09:22:32;38.63;;;12.43;;
21890;SDS011;11110;52.386;16.940;2023-03-01T09:25:02;36.30;;;13.47;;
21890;SDS011;11110;52.386;16.940;2023-03-01T09:27:31;44.87;;;15.17;;
21890;SDS011;11110;52.386;16.940;2023-03-01T09:29:59;39.30;;;13.77;;
21890;SDS011;11110;52.386;16.940;2023-03-01T09:32:29;39.70;;;14.47;;
21890;SDS011;11110;52.386;16.940;2023-03-01T09:35:00;38.60;;;13.10;;
21890;SDS011;11110;52.386;16.940;2023-03-01T09:37:31;32.57;;;13.10;;
21890;SDS011;11110;52.386;16.940;2023-03-01T09:40:00;41.87;;;13.63;;
21890;SDS011;11110;52.386;16.940;2023-03-01T09:42:29;32.37;;;11.33;;
21890;SDS011;11110;52.386;16.940;2023-03-01T09:45:02;39.57;;;12.60;;
21890;SDS011;11110;52.386;16.940;2023-03-01T09:47:32;31.17;;;10.53;;
21890;SDS011;11110;52.386;16.940;2023-03-01T09:50:06;39.70;;;14.33;;
21890;SDS011;11110;52.386;16.940;2023-03-01T09:52:40;32.93;;;10.70;;
21890;SDS011;11110;52.386;16.940;2023-03-01T09:55:12;42.57;;;12.53;;
21890;SDS011;11110;52.386;16.940;2023-03-01T09:57:45;31.77;;;11.33;;
21890;SDS011;11110;52.386;16.940;2023-03-01T10:00:20;31.47;;;11.20;;
21890;SDS011;11110;52.386;16.940;2023-03-01T10:02:59;41.03;;;12.77;;
21890;SDS011;11110;52.386;16.940;2023-03-01T10:05:40;34.93;;;12.47;;
21890;SDS011;11110;52.386;16.940;2023-03-01T10:08:25;35.03;;;13.00;;
21890;SDS011;11110;52.386;16.940;2023-03-01T10:11:03;27.23;;;11.10;;
21890;SDS011;11110;52.386;16.940;2023-03-01T10:13:36;32.57;;;12.43;;
21890;SDS011;11110;52.386;16.940;2023-03-01T10:16:21;37.50;;;12.87;;
21890;SDS011;11110;52.386;16.940;2023-03-01T10:18:55;44.13;;;13.17;;
21890;SDS011;11110;52.386;16.940;2023-03-01T10:21:29;25.67;;;10.67;;
21890;SDS011;11110;52.386;16.940;2023-03-01T10:24:01;40.17;;;12.40;;
21890;SDS011;11110;52.386;16.940;2023-03-01T10:26:43;40.30;;;12.40;;
21890;SDS011;11110;52.386;16.940;2023-03-01T10:29:16;30.93;;;10.80;;
21890;SDS011;11110;52.386;16.940;2023-03-01T10:31:46;29.77;;;10.17;;
21890;SDS011;11110;52.386;16.940;2023-03-01T10:34:17;26.27;;;9.07;;
21890;SDS011;11110;52.386;16.940;2023-03-01T10:36:49;29.50;;;9.93;;
21890;SDS011;11110;52.386;16.940;2023-03-01T10:39:20;29.37;;;10.77;;
21890;SDS011;11110;52.386;16.940;2023-03-01T10:41:52;29.57;;;9.63;;
21890;SDS011;11110;52.386;16.940;2023-03-01T10:44:36;35.73;;;11.13;;
21890;SDS011;11110;52.386;16.940;2023-03-01T10:47:11;28.40;;;9.17;;
21890;SDS011;11110;52.386;16.940;2023-03-01T10:49:52;25.30;;;8.47;;
21890;SDS011;11110;52.386;16.940;2023-03-01T10:52:30;27.33;;;9.00;;
21890;SDS011;11110;52.386;16.940;2023-03-01T10:55:02;28.17;;;8.37;;
21890;SDS011;11110;52.386;16.940;2023-03-01T10:57:46;29.13;;;8.40;;
21890;SDS011;11110;52.386;16.940;2023-03-01T11:03:02;28.67;;;9.00;;
21890;SDS011;11110;52.386;16.940;2023-03-01T11:05:49;25.47;;;8.93;;
21890;SDS011;11110;52.386;16.940;2023-03-01T11:11:29;19.20;;;6.47;;
21890;SDS011;11110;52.386;16.940;2023-03-01T11:14:00;24.03;;;6.87;;
21890;SDS011;11110;52.386;16.940;2023-03-01T11:16:58;20.23;;;6.93;;
21890;SDS011;11110;52.386;16.940;2023-03-01T11:19:29;21.27;;;7.23;;
21890;SDS011;11110;52.386;16.940;2023-03-01T11:21:59;18.87;;;6.27;;
21890;SDS011;11110;52.386;16.940;2023-03-01T11:24:39;24.90;;;6.50;;
21890;SDS011;11110;52.386;16.940;2023-03-01T11:27:17;25.37;;;6.93;;
21890;SDS011;11110;52.386;16.940;2023-03-01T11:29:51;18.93;;;6.07;;
21890;SDS011;11110;52.386;16.940;2023-03-01T11:32:24;18.27;;;5.93;;
21890;SDS011;11110;52.386;16.940;2023-03-01T11:34:56;31.03;;;7.77;;
21890;SDS011;11110;52.386;16.940;2023-03-01T11:37:32;23.63;;;7.23;;
21890;SDS011;11110;52.386;16.940;2023-03-01T11:40:10;13.60;;;5.00;;
21890;SDS011;11110;52.386;16.940;2023-03-01T11:42:50;12.83;;;5.20;;
21890;SDS011;11110;52.386;16.940;2023-03-01T11:45:30;12.60;;;4.33;;
21890;SDS011;11110;52.386;16.940;2023-03-01T11:48:12;11.57;;;4.80;;
21890;SDS011;11110;52.386;16.940;2023-03-01T11:51:18;12.00;;;4.93;;
21890;SDS011;11110;52.386;16.940;2023-03-01T11:54:02;18.27;;;6.33;;
21890;SDS011;11110;52.386;16.940;2023-03-01T11:56:41;22.20;;;6.40;;
21890;SDS011;11110;52.386;16.940;2023-03-01T11:59:20;16.77;;;6.40;;
21890;SDS011;11110;52.386;16.940;2023-03-01T12:02:26;21.50;;;6.83;;
21890;SDS011;11110;52.386;16.940;2023-03-01T12:05:12;20.13;;;6.63;;
21890;SDS011;11110;52.386;16.940;2023-03-01T12:07:51;22.97;;;6.93;;
21890;SDS011;11110;52.386;16.940;2023-03-01T12:10:27;18.10;;;6.23;;
21890;SDS011;11110;52.386;16.940;2023-03-01T12:13:05;42.53;;;9.43;;
21890;SDS011;11110;52.386;16.940;2023-03-01T12:15:51;26.40;;;7.37;;
21890;SDS011;11110;52.386;16.940;2023-03-01T12:18:50;26.43;;;7.33;;
21890;SDS011;11110;52.386;16.940;2023-03-01T12:21:31;25.03;;;7.60;;
21890;SDS011;11110;52.386;16.940;2023-03-01T12:24:15;25.73;;;8.10;;
21890;SDS011;11110;52.386;16.940;2023-03-01T12:27:06;24.00;;;7.67;;
21890;SDS011;11110;52.386;16.940;2023-03-01T12:29:48;24.43;;;8.00;;
21890;SDS011;11110;52.386;16.940;2023-03-01T12:35:36;22.80;;;7.33;;
21890;SDS011;11110;52.386;16.940;2023-03-01T12:38:20;27.73;;;8.27;;
21890;SDS011;11110;52.386;16.940;2023-03-01T12:44:01;20.83;;;6.67;;
21890;SDS011;11110;52.386;16.940;2023-03-01T12:46:47;26.40;;;7.67;;
21890;SDS011;11110;52.386;16.940;2023-03-01T12:49:28;20.43;;;6.87;;
21890;SDS011;11110;52.386;16.940;2023-03-01T12:52:02;23.37;;;7.43;;
21890;SDS011;11110;52.386;16.940;2023-03-01T12:54:38;20.47;;;7.17;;
21890;SDS011;11110;52.386;16.940;2023-03-01T12:57:09;22.40;;;7.20;;
21890;SDS011;11110;52.386;16.940;2023-03-01T12:59:44;16.33;;;6.17;;
21890;SDS011;11110;52.386;16.940;2023-03-01T13:02:22;22.47;;;7.77;;
21890;SDS011;11110;52.386;16.940;2023-03-01T13:05:01;23.73;;;7.60;;
21890;SDS011;11110;52.386;16.940;2023-03-01T13:07:49;19.43;;;7.60;;
21890;SDS011;11110;52.386;16.940;2023-03-01T13:10:24;26.27;;;8.57;;
21890;SDS011;11110;52.386;16.940;2023-03-01T13:13:02;20.43;;;6.97;;
21890;SDS011;11110;52.386;16.940;2023-03-01T13:15:39;21.77;;;7.40;;
21890;SDS011;11110;52.386;16.940;2023-03-01T13:21:02;23.97;;;7.17;;
21890;SDS011;11110;52.386;16.940;2023-03-01T13:23:33;22.43;;;7.17;;
21890;SDS011;11110;52.386;16.940;2023-03-01T13:26:08;21.77;;;7.30;;
21890;SDS011;11110;52.386;16.940;2023-03-01T13:28:47;18.87;;;5.93;;
21890;SDS011;11110;52.386;16.940;2023-03-01T13:34:55;19.33;;;7.23;;
21890;SDS011;11110;52.386;16.940;2023-03-01T13:37:35;22.03;;;7.03;;
21890;SDS011;11110;52.386;16.940;2023-03-01T13:45:57;20.10;;;6.47;;
21890;SDS011;11110;52.386;16.940;2023-03-01T13:48:27;23.17;;;7.63;;
21890;SDS011;11110;52.386;16.940;2023-03-01T13:51:00;25.40;;;7.10;;
21890;SDS011;11110;52.386;16.940;2023-03-01T13:53:31;23.67;;;7.87;;
21890;SDS011;11110;52.386;16.940;2023-03-01T13:56:07;23.60;;;7.30;;
21890;SDS011;11110;52.386;16.940;2023-03-01T13:58:47;28.70;;;8.30;;
21890;SDS011;11110;52.386;16.940;2023-03-01T14:01:23;21.10;;;6.87;;
21890;SDS011;11110;52.386;16.940;2023-03-01T14:03:53;16.60;;;6.10;;
21890;SDS011;11110;52.386;16.940;2023-03-01T14:06:24;27.33;;;7.87;;
21890;SDS011;11110;52.386;16.940;2023-03-01T14:09:00;27.07;;;7.83;;
21890;SDS011;11110;52.386;16.940;2023-03-01T14:14:41;16.60;;;5.93;;
21890;SDS011;11110;52.386;16.940;2023-03-01T14:17:18;17.63;;;6.00;;
21890;SDS011;11110;52.386;16.940;2023-03-01T14:20:09;17.80;;;7.10;;
21890;SDS011;11110;52.386;16.940;2023-03-01T14:22:42;21.33;;;7.53;;
21890;SDS011;11110;52.386;16.940;2023-03-01T14:25:25;18.30;;;7.07;;
21890;SDS011;11110;52.386;16.940;2023-03-01T14:27:58;24.40;;;7.23;;
21890;SDS011;11110;52.386;16.940;2023-03-01T14:30:33;22.17;;;7.40;;
21890;SDS011;11110;52.386;16.940;2023-03-01T14:33:06;21.87;;;7.67;;
21890;SDS011;11110;52.386;16.940;2023-03-01T14:35:52;20.63;;;6.70;;
21890;SDS011;11110;52.386;16.940;2023-03-01T14:38:29;24.37;;;7.37;;
21890;SDS011;11110;52.386;16.940;2023-03-01T14:41:02;22.97;;;7.63;;
21890;SDS011;11110;52.386;16.940;2023-03-01T14:43:35;23.13;;;7.33;;
21890;SDS011;11110;52.386;16.940;2023-03-01T14:46:05;24.40;;;8.00;;
21890;SDS011;11110;52.386;16.940;2023-03-01T14:48:34;21.60;;;7.40;;
21890;SDS011;11110;52.386;16.940;2023-03-01T14:51:04;18.80;;;6.70;;
21890;SDS011;11110;52.386;16.940;2023-03-01T14:53:35;28.00;;;7.97;;
21890;SDS011;11110;52.386;16.940;2023-03-01T14:56:16;21.37;;;6.67;;
21890;SDS011;11110;52.386;16.940;2023-03-01T14:58:46;16.80;;;6.20;;
21890;SDS011;11110;52.386;16.940;2023-03-01T15:01:18;20.00;;;6.70;;
21890;SDS011;11110;52.386;16.940;2023-03-01T15:03:49;17.20;;;6.97;;
21890;SDS011;11110;52.386;16.940;2023-03-01T15:06:19;20.00;;;6.20;;
21890;SDS011;11110;52.386;16.940;2023-03-01T15:08:53;19.10;;;6.67;;
21890;SDS011;11110;52.386;16.940;2023-03-01T15:11:26;17.73;;;7.13;;
21890;SDS011;11110;52.386;16.940;2023-03-01T15:13:57;20.37;;;6.63;;
21890;SDS011;11110;52.386;16.940;2023-03-01T15:16:27;20.03;;;6.30;;
21890;SDS011;11110;52.386;16.940;2023-03-01T15:18:59;20.03;;;6.63;;
21890;SDS011;11110;52.386;16.940;2023-03-01T15:21:30;16.73;;;5.90;;
21890;SDS011;11110;52.386;16.940;2023-03-01T15:24:04;19.73;;;7.93;;
21890;SDS011;11110;52.386;16.940;2023-03-01T15:26:49;15.53;;;6.40;;